createdAt,value
2023-02-13T00:00:55.797Z,39.42
2023-02-13T00:03:25.168Z,38.13
2023-02-13T00:05:52.930Z,42.90
2023-02-13T00:08:20.681Z,37.28
2023-02-13T00:10:48.603Z,39.00
2023-02-13T00:13:16.391Z,39.38
2023-02-13T00:15:44.182Z,37.05
2023-02-13T00:18:12.344Z,41.50
2023-02-13T00:20:41.469Z,38.90
2023-02-13T00:23:09.224Z,42.40
2023-02-13T00:25:36.958Z,39.80
2023-02-13T00:28:04.751Z,40.67
2023-02-13T00:30:32.462Z,35.55
2023-02-13T00:33:00.224Z,39.58
2023-02-13T00:35:27.989Z,38.70
2023-02-13T00:37:57.072Z,39.55
2023-02-13T00:40:25.069Z,39.25
2023-02-13T00:42:52.806Z,39.17
2023-02-13T00:45:20.568Z,36.75
2023-02-13T00:47:48.309Z,38.78
2023-02-13T00:50:16.148Z,38.35
2023-02-13T00:52:43.913Z,39.00
2023-02-13T00:55:13.005Z,40.65
2023-02-13T00:57:40.684Z,37.85
2023-02-13T01:00:10.644Z,39.40
2023-02-13T01:02:38.520Z,37.53
2023-02-13T01:05:06.761Z,36.05
2023-02-13T01:07:34.491Z,38.30
2023-02-13T01:10:02.315Z,37.30
2023-02-13T01:12:31.415Z,41.55
2023-02-13T01:14:59.287Z,39.47
2023-02-13T01:17:27.050Z,37.17
2023-02-13T01:19:55.100Z,36.75
2023-02-13T01:22:22.839Z,39.40
2023-02-13T01:24:50.768Z,37.30
2023-02-13T01:27:18.556Z,39.95
2023-02-13T01:29:47.656Z,36.90
2023-02-13T01:32:15.667Z,41.05
2023-02-13T01:34:43.417Z,43.40
2023-02-13T01:37:11.113Z,35.40
2023-02-13T01:39:38.917Z,41.22
2023-02-13T01:42:07.556Z,43.03
2023-02-13T01:44:53.556Z,40.42
2023-02-13T01:47:27.403Z,38.50
2023-02-13T01:50:04.801Z,39.67
2023-02-13T01:52:33.070Z,36.30
2023-02-13T01:55:01.067Z,36.13
2023-02-13T01:57:32.443Z,33.88
2023-02-13T02:00:04.657Z,36.03
2023-02-13T02:02:35.911Z,37.72
2023-02-13T02:05:04.508Z,35.50
2023-02-13T02:07:34.079Z,38.20
2023-02-13T02:10:06.254Z,35.72
2023-02-13T02:12:40.064Z,32.55
2023-02-13T02:17:37.397Z,38.90
2023-02-13T02:20:16.081Z,36.92
2023-02-13T02:23:07.766Z,37.40
2023-02-13T02:26:03.369Z,34.28
2023-02-13T02:29:03.423Z,34.35
2023-02-13T02:32:08.452Z,36.65
2023-02-13T02:34:50.070Z,34.33
2023-02-13T02:37:33.317Z,34.10
2023-02-13T02:40:13.303Z,31.70
2023-02-13T02:42:49.006Z,35.47
2023-02-13T02:45:26.574Z,33.88
2023-02-13T02:48:18.132Z,36.17
2023-02-13T02:50:52.629Z,37.42
2023-02-13T02:53:32.725Z,31.88
2023-02-13T02:56:08.211Z,37.53
2023-02-13T02:59:08.785Z,33.03
2023-02-13T03:01:56.305Z,34.78
2023-02-13T03:04:45.250Z,35.72
2023-02-13T03:07:17.215Z,37.42
2023-02-13T03:10:06.108Z,40.42
2023-02-13T03:12:58.207Z,33.08
2023-02-13T03:15:28.304Z,33.05
2023-02-13T03:18:14.907Z,38.42
2023-02-13T03:21:08.970Z,36.65
2023-02-13T03:23:47.316Z,35.85
2023-02-13T03:26:45.700Z,36.95
2023-02-13T03:29:37.810Z,37.58
2023-02-13T03:32:13.435Z,36.22
2023-02-13T03:35:06.945Z,32.35
2023-02-13T03:37:56.683Z,34.17
2023-02-13T03:40:31.566Z,31.75
2023-02-13T03:43:09.457Z,34.90
2023-02-13T03:45:57.249Z,35.58
2023-02-13T03:48:46.154Z,37.08
2023-02-13T03:51:18.375Z,35.00
2023-02-13T03:53:51.970Z,33.85
2023-02-13T03:56:39.938Z,35.35
2023-02-13T03:59:18.726Z,33.22
2023-02-13T04:01:55.256Z,37.33
2023-02-13T04:04:29.844Z,33.80
2023-02-13T04:07:01.240Z,41.60
2023-02-13T04:09:32.668Z,36.63
2023-02-13T04:12:07.510Z,36.55
2023-02-13T04:14:39.447Z,35.33
2023-02-13T04:17:10.884Z,35.38
2023-02-13T04:19:39.209Z,35.50
2023-02-13T04:22:06.974Z,36.90
2023-02-13T04:24:36.060Z,38.13
2023-02-13T04:27:03.887Z,33.13
2023-02-13T04:29:31.650Z,36.42
2023-02-13T04:31:59.426Z,37.45
2023-02-13T04:34:27.262Z,35.78
2023-02-13T04:36:55.024Z,40.97
2023-02-13T04:39:22.717Z,35.53
2023-02-13T04:41:51.788Z,38.53
2023-02-13T04:44:19.524Z,40.42
2023-02-13T04:46:47.241Z,37.75
2023-02-13T04:49:15.109Z,39.40
2023-02-13T04:51:42.895Z,39.40
2023-02-13T04:54:13.786Z,36.05
2023-02-13T04:56:41.522Z,38.78
2023-02-13T04:59:10.641Z,39.78
2023-02-13T05:01:38.416Z,40.75
2023-02-13T05:04:06.302Z,38.88
2023-02-13T05:06:33.954Z,40.05
2023-02-13T05:09:02.861Z,42.45
2023-02-13T05:11:30.658Z,37.53
2023-02-13T05:13:58.391Z,42.30
2023-02-13T05:16:27.519Z,39.60
2023-02-13T05:18:55.282Z,41.03
2023-02-13T05:21:36.911Z,39.33
2023-02-13T05:24:04.829Z,39.22
2023-02-13T05:26:32.684Z,39.47
2023-02-13T05:29:17.666Z,37.38
2023-02-13T05:31:46.946Z,41.15
2023-02-13T05:34:14.802Z,40.08
2023-02-13T05:36:42.608Z,41.10
2023-02-13T05:39:10.521Z,38.97
2023-02-13T05:41:38.238Z,46.53
2023-02-13T05:44:06.122Z,37.80
2023-02-13T05:46:33.936Z,42.15
2023-02-13T05:49:04.846Z,40.22
2023-02-13T05:51:33.034Z,37.97
2023-02-13T05:54:00.806Z,38.85
2023-02-13T05:56:28.776Z,41.40
2023-02-13T05:58:57.543Z,40.67
2023-02-13T06:01:25.730Z,38.95
2023-02-13T06:03:53.555Z,42.47
2023-02-13T06:06:23.397Z,41.05
2023-02-13T06:08:51.140Z,40.20
2023-02-13T06:11:19.144Z,42.00
2023-02-13T06:13:46.946Z,41.30
2023-02-13T06:16:15.202Z,39.50
2023-02-13T06:18:43.044Z,40.85
2023-02-13T06:21:10.848Z,44.33
2023-02-13T06:23:39.924Z,45.05
2023-02-13T06:26:09.701Z,44.50
2023-02-13T06:28:37.517Z,42.03
2023-02-13T06:31:05.732Z,44.25
2023-02-13T06:33:33.562Z,42.00
2023-02-13T06:36:01.348Z,42.45
2023-02-13T06:38:29.139Z,44.75
2023-02-13T06:41:01.937Z,38.65
2023-02-13T06:43:29.711Z,48.13
2023-02-13T06:45:57.472Z,44.22
2023-02-13T06:48:25.355Z,42.50
2023-02-13T06:50:53.119Z,43.28
2023-02-13T06:53:25.076Z,43.50
2023-02-13T06:55:54.019Z,45.00
2023-02-13T06:58:24.763Z,43.88
2023-02-13T07:00:53.356Z,40.90
2023-02-13T07:03:21.172Z,65.65
2023-02-13T07:05:51.978Z,48.25
2023-02-13T07:08:19.902Z,42.53
2023-02-13T07:10:47.657Z,50.45
2023-02-13T07:13:15.427Z,41.13
2023-02-13T07:15:44.861Z,45.50
2023-02-13T07:18:12.605Z,46.08
2023-02-13T07:20:40.344Z,48.72
2023-02-13T07:23:08.128Z,44.97
2023-02-13T07:25:36.005Z,44.40
2023-02-13T07:28:04.658Z,47.60
2023-02-13T07:30:32.841Z,47.58
2023-02-13T07:33:03.213Z,45.88
2023-02-13T07:35:36.835Z,47.28
2023-02-13T07:38:05.011Z,46.65
2023-02-13T07:40:32.737Z,46.50
2023-02-13T07:43:02.002Z,59.95
2023-02-13T07:45:29.816Z,48.72
2023-02-13T07:47:57.811Z,51.00
2023-02-13T07:50:27.538Z,46.38
2023-02-13T07:52:55.796Z,47.78
2023-02-13T07:55:23.918Z,48.47
2023-02-13T07:57:52.197Z,54.92
2023-02-13T08:00:21.265Z,52.58
2023-02-13T08:02:49.499Z,52.00
2023-02-13T08:05:17.548Z,49.95
2023-02-13T08:07:46.628Z,49.35
2023-02-13T08:10:33.188Z,56.10
2023-02-13T08:13:01.458Z,52.35
2023-02-13T08:15:29.204Z,54.53
2023-02-13T08:17:57.090Z,56.78
2023-02-13T08:20:25.077Z,53.65
2023-02-13T08:22:54.173Z,54.80
2023-02-13T08:25:21.950Z,56.35
2023-02-13T08:27:49.662Z,64.45
2023-02-13T08:30:17.737Z,51.58
2023-02-13T08:32:54.429Z,63.40
2023-02-13T08:35:22.789Z,53.55
2023-02-13T08:37:50.600Z,52.85
2023-02-13T08:40:19.954Z,52.40
2023-02-13T08:42:47.708Z,53.05
2023-02-13T08:45:15.587Z,53.67
2023-02-13T08:47:43.332Z,48.88
2023-02-13T08:50:11.824Z,53.05
2023-02-13T08:52:39.598Z,56.60
2023-02-13T08:55:07.693Z,55.83
2023-02-13T08:57:36.820Z,52.65
2023-02-13T09:00:05.996Z,56.35
2023-02-13T09:02:33.782Z,52.17
2023-02-13T09:05:01.542Z,53.42
2023-02-13T09:07:29.391Z,51.40
2023-02-13T09:09:57.077Z,49.63
2023-02-13T09:12:24.880Z,52.15
2023-02-13T09:14:54.016Z,54.35
2023-02-13T09:17:21.738Z,53.42
2023-02-13T09:19:49.466Z,48.60
2023-02-13T09:22:17.624Z,50.95
2023-02-13T09:24:45.395Z,51.50
2023-02-13T09:27:13.181Z,52.47
2023-02-13T09:29:40.970Z,52.17
2023-02-13T09:32:10.224Z,52.90
2023-02-13T09:34:38.010Z,49.38
2023-02-13T09:37:05.758Z,49.92
2023-02-13T09:39:33.509Z,49.33
2023-02-13T09:42:02.336Z,56.30
2023-02-13T09:44:35.409Z,50.58
2023-02-13T09:47:07.482Z,50.63
2023-02-13T09:49:39.977Z,48.22
2023-02-13T09:52:11.207Z,51.15
2023-02-13T09:54:39.193Z,49.78
2023-02-13T09:57:16.543Z,53.35
2023-02-13T09:59:57.099Z,55.67
2023-02-13T10:02:45.981Z,55.47
2023-02-13T10:05:30.331Z,50.78
2023-02-13T10:08:07.348Z,49.42
2023-02-13T10:10:46.201Z,55.45
2023-02-13T10:13:29.952Z,48.92
2023-02-13T10:16:05.486Z,49.78
2023-02-13T10:18:44.057Z,45.70
2023-02-13T10:21:15.101Z,48.15
2023-02-13T10:23:47.293Z,46.63
2023-02-13T10:26:21.019Z,47.15
2023-02-13T10:29:14.306Z,42.70
2023-02-13T10:31:45.073Z,47.00
2023-02-13T10:34:16.574Z,43.72
2023-02-13T10:36:48.055Z,39.90
2023-02-13T10:39:24.780Z,44.20
2023-02-13T10:41:57.987Z,41.20
2023-02-13T10:44:44.258Z,39.88
2023-02-13T10:47:22.857Z,37.97
2023-02-13T10:50:01.332Z,38.20
2023-02-13T10:52:40.456Z,35.45
2023-02-13T10:55:24.218Z,38.60
2023-02-13T10:58:07.735Z,34.13
2023-02-13T11:00:40.197Z,36.10
2023-02-13T11:03:18.820Z,36.60
2023-02-13T11:05:46.689Z,38.25
2023-02-13T11:08:19.857Z,43.17
2023-02-13T11:10:47.890Z,32.83
2023-02-13T11:13:18.901Z,33.45
2023-02-13T11:16:04.340Z,33.78
2023-02-13T11:18:35.522Z,32.97
2023-02-13T11:21:09.016Z,38.83
2023-02-13T11:23:43.483Z,32.97
2023-02-13T11:26:15.293Z,33.78
2023-02-13T11:28:51.095Z,33.25
2023-02-13T11:31:30.305Z,31.58
2023-02-13T11:33:59.414Z,30.75
2023-02-13T11:36:30.234Z,28.13
2023-02-13T11:39:06.227Z,32.88
2023-02-13T11:41:41.772Z,31.35
2023-02-13T11:44:23.014Z,31.38
2023-02-13T11:46:52.960Z,30.33
2023-02-13T11:49:23.291Z,32.28
2023-02-13T11:51:53.556Z,34.05
2023-02-13T11:54:34.327Z,27.80
2023-02-13T11:57:05.848Z,29.23
2023-02-13T11:59:41.603Z,28.77
2023-02-13T12:02:19.285Z,28.25
2023-02-13T12:04:48.648Z,28.02
2023-02-13T12:07:21.234Z,28.48
2023-02-13T12:09:55.135Z,25.90
2023-02-13T12:12:30.088Z,29.13
2023-02-13T12:14:59.480Z,26.20
2023-02-13T12:17:32.487Z,26.92
2023-02-13T12:20:01.191Z,28.17
2023-02-13T12:22:39.275Z,27.85
2023-02-13T12:25:29.300Z,43.92
2023-02-13T12:28:11.895Z,27.35
2023-02-13T12:31:20.577Z,27.20
2023-02-13T12:34:23.919Z,24.65
2023-02-13T12:37:09.797Z,24.73
2023-02-13T12:39:42.340Z,28.92
2023-02-13T12:42:23.307Z,24.80
2023-02-13T12:45:16.005Z,25.77
2023-02-13T12:48:02.799Z,26.73
2023-02-13T12:50:45.430Z,29.30
2023-02-13T12:53:26.077Z,26.13
2023-02-13T12:56:12.896Z,24.90
2023-02-13T12:58:56.725Z,27.15
2023-02-13T13:01:44.428Z,24.25
2023-02-13T13:04:21.959Z,25.35
2023-02-13T13:07:01.284Z,27.25
2023-02-13T13:09:53.099Z,27.88
2023-02-13T13:12:33.532Z,27.98
2023-02-13T13:15:09.070Z,31.20
2023-02-13T13:17:51.020Z,26.25
2023-02-13T13:20:38.772Z,24.10
2023-02-13T13:23:12.434Z,26.05
2023-02-13T13:25:49.516Z,29.95
2023-02-13T13:28:20.541Z,25.00
2023-02-13T13:30:50.394Z,24.65
2023-02-13T13:33:20.859Z,26.50
2023-02-13T13:35:59.646Z,25.13
2023-02-13T13:38:39.728Z,26.85
2023-02-13T13:41:16.119Z,23.73
2023-02-13T13:43:59.263Z,23.52
2023-02-13T13:46:38.704Z,24.70
2023-02-13T13:49:25.866Z,27.45
2023-02-13T13:51:53.629Z,29.52
2023-02-13T13:54:35.486Z,48.50
2023-02-13T13:57:13.625Z,24.77
2023-02-13T14:00:01.995Z,24.38
2023-02-13T14:02:43.591Z,23.92
2023-02-13T14:05:24.299Z,38.28
2023-02-13T14:07:54.020Z,29.60
2023-02-13T14:11:09.510Z,30.63
2023-02-13T14:13:39.526Z,29.40
2023-02-13T14:16:12.149Z,25.80
2023-02-13T14:18:47.883Z,28.20
2023-02-13T14:21:24.726Z,24.63
2023-02-13T14:23:53.844Z,25.67
2023-02-13T14:26:36.615Z,26.75
2023-02-13T14:29:22.470Z,29.73
2023-02-13T14:32:19.186Z,26.42
2023-02-13T14:34:56.996Z,26.48
2023-02-13T14:37:34.550Z,28.88
2023-02-13T14:40:55.867Z,26.63
2023-02-13T14:43:40.523Z,24.80
2023-02-13T14:46:30.923Z,29.00
2023-02-13T14:49:03.120Z,28.77
2023-02-13T14:51:37.172Z,28.08
2023-02-13T14:54:16.629Z,24.40
2023-02-13T14:56:47.554Z,24.35
2023-02-13T14:59:18.389Z,27.42
2023-02-13T15:01:53.363Z,25.85
2023-02-13T15:04:28.282Z,25.25
2023-02-13T15:07:01.302Z,23.08
2023-02-13T15:09:35.740Z,22.17
2023-02-13T15:12:03.542Z,24.83
2023-02-13T15:14:36.190Z,28.55
2023-02-13T15:17:10.213Z,22.35
2023-02-13T15:19:40.595Z,23.13
2023-02-13T15:22:20.463Z,24.00
2023-02-13T15:24:49.749Z,26.30
2023-02-13T15:27:21.954Z,25.27
2023-02-13T15:29:59.058Z,26.35
2023-02-13T15:32:34.392Z,30.35
2023-02-13T15:35:02.202Z,27.60
2023-02-13T15:37:32.001Z,25.75
2023-02-13T15:40:17.166Z,25.80
2023-02-13T15:42:45.074Z,32.78
2023-02-13T15:45:17.564Z,24.27
2023-02-13T15:47:46.545Z,25.77
2023-02-13T15:50:23.609Z,24.65
2023-02-13T15:52:53.205Z,26.60
2023-02-13T15:55:23.945Z,27.90
2023-02-13T15:57:54.747Z,25.83
2023-02-13T16:00:26.421Z,24.88
2023-02-13T16:02:55.843Z,27.38
2023-02-13T16:05:38.974Z,25.00
2023-02-13T16:08:28.200Z,28.88
2023-02-13T16:11:18.139Z,27.30
2023-02-13T16:14:06.029Z,29.35
2023-02-13T16:16:37.698Z,27.23
2023-02-13T16:19:06.007Z,34.28
2023-02-13T16:21:35.925Z,24.58
2023-02-13T16:24:08.447Z,25.55
2023-02-13T16:26:39.225Z,23.25
2023-02-13T16:29:11.503Z,26.67
2023-02-13T16:31:40.878Z,29.98
2023-02-13T16:34:16.020Z,32.15
2023-02-13T16:36:43.946Z,27.52
2023-02-13T16:39:21.667Z,29.98
2023-02-13T16:41:51.413Z,29.65
2023-02-13T16:44:31.255Z,30.27
2023-02-13T16:47:01.512Z,24.95
2023-02-13T16:49:31.761Z,28.77
2023-02-13T16:52:11.696Z,34.97
2023-02-13T16:54:49.939Z,36.15
2023-02-13T16:57:24.555Z,56.28
2023-02-13T17:00:03.983Z,71.45
2023-02-13T17:02:33.733Z,50.72
2023-02-13T17:05:17.680Z,36.08
2023-02-13T17:07:48.269Z,31.65
2023-02-13T17:10:22.478Z,34.28
2023-02-13T17:12:51.827Z,35.75
2023-02-13T17:15:22.652Z,34.38
2023-02-13T17:17:51.654Z,35.92
2023-02-13T17:20:21.782Z,40.30
2023-02-13T17:22:51.356Z,42.33
2023-02-13T17:25:23.622Z,37.45
2023-02-13T17:27:53.049Z,31.83
2023-02-13T17:30:22.925Z,30.13
2023-02-13T17:32:54.931Z,38.20
2023-02-13T17:35:22.698Z,34.33
2023-02-13T17:37:50.448Z,39.08
2023-02-13T17:40:20.123Z,38.88
2023-02-13T17:42:52.693Z,58.15
2023-02-13T17:45:23.593Z,46.95
2023-02-13T17:47:51.338Z,56.15
2023-02-13T17:50:19.573Z,47.70
2023-02-13T17:52:49.111Z,38.80
2023-02-13T17:55:18.596Z,41.05
2023-02-13T17:57:46.427Z,64.28
2023-02-13T18:00:16.242Z,66.03
2023-02-13T18:02:44.246Z,54.38
2023-02-13T18:05:12.535Z,51.53
2023-02-13T18:07:41.535Z,49.00
2023-02-13T18:10:13.231Z,34.33
2023-02-13T18:12:41.562Z,40.42
2023-02-13T18:15:10.245Z,33.00
2023-02-13T18:17:39.668Z,34.63
2023-02-13T18:20:09.674Z,34.72
2023-02-13T18:22:37.635Z,35.10
2023-02-13T18:25:06.710Z,38.00
2023-02-13T18:27:34.599Z,35.88
2023-02-13T18:30:02.553Z,31.70
2023-02-13T18:32:30.409Z,31.60
2023-02-13T18:34:59.650Z,41.20
2023-02-13T18:37:29.436Z,31.52
2023-02-13T18:39:58.003Z,34.40
2023-02-13T18:42:25.951Z,35.22
2023-02-13T18:44:53.776Z,35.03
2023-02-13T18:47:21.558Z,39.83
2023-02-13T18:49:49.334Z,37.90
2023-02-13T18:52:18.506Z,40.60
2023-02-13T18:54:46.289Z,56.65
2023-02-13T18:57:14.229Z,45.38
2023-02-13T18:59:42.008Z,47.60
2023-02-13T19:02:10.997Z,42.45
2023-02-13T19:04:39.192Z,39.83
2023-02-13T19:07:06.948Z,41.25
2023-02-13T19:09:40.253Z,47.50
2023-02-13T19:12:09.077Z,45.58
2023-02-13T19:14:37.174Z,42.55
2023-02-13T19:17:04.962Z,61.50
2023-02-13T19:19:32.746Z,52.78
2023-02-13T19:22:00.500Z,53.33
2023-02-13T19:24:28.241Z,44.72
2023-02-13T19:26:57.409Z,36.60
2023-02-13T19:29:25.308Z,44.47
2023-02-13T19:31:53.447Z,48.88
2023-02-13T19:34:21.194Z,51.53
2023-02-13T19:36:48.931Z,51.88
2023-02-13T19:39:16.869Z,71.47
2023-02-13T19:41:44.673Z,122.03
2023-02-13T19:44:14.081Z,62.75
2023-02-13T19:46:41.939Z,50.08
2023-02-13T19:49:10.713Z,51.63
2023-02-13T19:51:38.642Z,52.90
2023-02-13T19:54:08.405Z,69.70
2023-02-13T19:56:37.862Z,74.32
2023-02-13T19:59:06.848Z,62.97
2023-02-13T20:01:36.037Z,59.83
2023-02-13T20:04:03.825Z,55.88
2023-02-13T20:06:34.970Z,53.03
2023-02-13T20:09:07.305Z,58.58
2023-02-13T20:11:35.115Z,51.63
2023-02-13T20:14:04.826Z,50.08
2023-02-13T20:16:35.494Z,55.20
2023-02-13T20:19:07.537Z,47.47
2023-02-13T20:21:35.608Z,46.40
2023-02-13T20:24:03.936Z,47.75
2023-02-13T20:26:32.134Z,49.83
2023-02-13T20:28:59.979Z,166.48
2023-02-13T20:31:29.926Z,86.95
2023-02-13T20:33:59.046Z,69.03
2023-02-13T20:36:30.213Z,64.30
2023-02-13T20:39:00.217Z,81.60
2023-02-13T20:41:30.797Z,206.90
2023-02-13T20:43:59.878Z,125.90
2023-02-13T20:46:28.133Z,89.70
2023-02-13T20:48:55.897Z,68.88
2023-02-13T20:51:23.646Z,69.55
2023-02-13T20:53:52.711Z,59.92
2023-02-13T20:56:22.187Z,59.20
2023-02-13T20:58:52.185Z,72.72
2023-02-13T21:01:22.451Z,72.13
2023-02-13T21:03:53.770Z,81.57
2023-02-13T21:06:22.410Z,67.07
2023-02-13T21:08:51.823Z,59.35
2023-02-13T21:11:20.366Z,59.38
2023-02-13T21:13:48.702Z,58.03
2023-02-13T21:16:19.084Z,57.85
2023-02-13T21:18:49.215Z,54.53
2023-02-13T21:21:18.306Z,48.28
2023-02-13T21:23:46.457Z,46.65
2023-02-13T21:26:17.580Z,42.97
2023-02-13T21:28:47.320Z,50.03
2023-02-13T21:31:19.260Z,45.33
2023-02-13T21:33:47.162Z,42.83
2023-02-13T21:36:14.875Z,48.17
2023-02-13T21:38:43.008Z,44.25
2023-02-13T21:41:12.876Z,44.15
2023-02-13T21:43:46.472Z,40.30
2023-02-13T21:46:15.907Z,39.35
2023-02-13T21:48:44.138Z,36.72
2023-02-13T21:51:14.034Z,38.28
2023-02-13T21:53:41.963Z,35.47
2023-02-13T21:56:12.802Z,33.05
2023-02-13T21:58:43.465Z,33.13
2023-02-13T22:01:23.915Z,35.33
2023-02-13T22:03:53.413Z,36.92
2023-02-13T22:06:21.933Z,39.25
2023-02-13T22:08:49.782Z,34.72
2023-02-13T22:11:18.652Z,37.85
2023-02-13T22:13:47.778Z,34.38
2023-02-13T22:16:16.558Z,40.65
2023-02-13T22:18:46.162Z,31.80
2023-02-13T22:21:16.238Z,35.80
2023-02-13T22:23:45.738Z,35.65
2023-02-13T22:26:17.754Z,35.88
2023-02-13T22:28:47.712Z,34.80
2023-02-13T22:31:16.909Z,36.88
2023-02-13T22:33:47.633Z,41.78
2023-02-13T22:36:16.751Z,45.17
2023-02-13T22:38:44.900Z,44.58
2023-02-13T22:41:15.389Z,52.25
2023-02-13T22:43:43.543Z,50.78
2023-02-13T22:46:15.516Z,55.50
2023-02-13T22:48:46.036Z,52.35
2023-02-13T22:51:16.128Z,48.65
2023-02-13T22:53:44.696Z,44.78
2023-02-13T22:56:13.311Z,47.83
2023-02-13T22:58:41.296Z,57.88
2023-02-13T23:01:15.260Z,44.85
2023-02-13T23:03:43.350Z,46.20
2023-02-13T23:06:12.977Z,41.10
2023-02-13T23:08:40.903Z,47.30
2023-02-13T23:11:27.764Z,39.10
2023-02-13T23:13:55.668Z,43.67
2023-02-13T23:16:24.737Z,44.30
2023-02-13T23:18:52.858Z,40.28
2023-02-13T23:21:21.195Z,45.00
2023-02-13T23:23:49.162Z,44.80
2023-02-13T23:26:17.039Z,42.17
2023-02-13T23:28:44.901Z,39.65
2023-02-13T23:31:12.773Z,46.15
2023-02-13T23:33:41.939Z,46.28
2023-02-13T23:36:09.836Z,45.08
2023-02-13T23:38:37.545Z,45.33
2023-02-13T23:41:09.082Z,41.10
2023-02-13T23:43:37.436Z,47.97
2023-02-13T23:46:06.318Z,40.17
2023-02-13T23:48:34.931Z,47.47
2023-02-13T23:51:04.112Z,42.33
2023-02-13T23:53:31.928Z,46.03
2023-02-13T23:55:59.662Z,39.72
2023-02-13T23:58:27.418Z,45.67
